Time;durP1;ratioP1;P1;durP2;ratioP2;P2;SDS_P1;SDS_P2;PMS_P1;PMS_P2;Temp;Humidity;BMP_temperature;BMP_pressure;BME280_temperature;BME280_humidity;BME280_pressure;Samples;Min_cycle;Max_cycle;Signal;HPM_P1;HPM_P2
2021/07/16 00:00:33;;;;;;;1.15;0.70;;;;;;;;;;5089870;28;20094;-61
2021/07/16 00:03:00;;;;;;;3.20;0.75;;;;;;;;;;5071742;28;20488;-62
2021/07/16 00:05:27;;;;;;;3.03;1.48;;;;;;;;;;5091535;28;20115;-62
2021/07/16 00:07:53;;;;;;;4.72;0.90;;;;;;;;;;5089885;28;20063;-62
2021/07/16 00:10:21;;;;;;;1.15;0.90;;;;;;;;;;5091701;28;20122;-63
2021/07/16 00:12:48;;;;;;;0.90;0.80;;;;;;;;;;5070236;28;20759;-63
2021/07/16 00:15:16;;;;;;;1.00;1.00;;;;;;;;;;5092448;28;20032;-63
2021/07/16 00:17:43;;;;;;;1.15;0.70;;;;;;;;;;5092865;28;20074;-63
2021/07/16 00:20:10;;;;;;;1.85;0.80;;;;;;;;;;5086548;28;20876;-64
2021/07/16 00:22:37;;;;;;;0.95;0.70;;;;;;;;;;5091564;28;20484;-63
2021/07/16 00:25:05;;;;;;;1.92;0.88;;;;;;;;;;5087336;28;20567;-63
2021/07/16 00:27:32;;;;;;;1.13;0.80;;;;;;;;;;5075142;28;20452;-63
2021/07/16 00:30:00;;;;;;;3.53;1.13;;;;;;;;;;5088665;28;20031;-62
2021/07/16 00:32:26;;;;;;;2.80;0.90;;;;;;;;;;5090783;28;20036;-62
2021/07/16 00:34:53;;;;;;;3.30;0.75;;;;;;;;;;5092109;28;20102;-62
2021/07/16 00:37:20;;;;;;;2.72;0.98;;;;;;;;;;5087695;28;20036;-62
2021/07/16 00:39:47;;;;;;;2.75;1.00;;;;;;;;;;5089413;28;20063;-63
2021/07/16 00:42:13;;;;;;;1.45;0.90;;;;;;;;;;5082319;28;20087;-63
2021/07/16 00:44:40;;;;;;;1.50;0.80;;;;;;;;;;5091239;28;20047;-62
2021/07/16 00:47:07;;;;;;;1.88;0.90;;;;;;;;;;5072582;28;20091;-62
2021/07/16 00:49:34;;;;;;;3.50;0.80;;;;;;;;;;5088835;28;20047;-63
2021/07/16 00:52:01;;;;;;;1.27;0.80;;;;;;;;;;5090611;28;20071;-62
2021/07/16 00:54:28;;;;;;;2.08;0.80;;;;;;;;;;5090689;28;20090;-63
2021/07/16 00:56:55;;;;;;;2.33;1.00;;;;;;;;;;5089588;28;20051;-62
2021/07/16 00:59:23;;;;;;;1.33;0.90;;;;;;;;;;5089313;28;20085;-63
2021/07/16 01:01:51;;;;;;;0.90;0.80;;;;;;;;;;5089264;28;20056;-62
2021/07/16 01:04:19;;;;;;;0.73;0.70;;;;;;;;;;5090108;28;20040;-62
2021/07/16 01:06:45;;;;;;;1.38;0.80;;;;;;;;;;5077630;28;20076;-63
2021/07/16 01:09:12;;;;;;;2.55;1.00;;;;;;;;;;5084065;28;20045;-63
2021/07/16 01:11:39;;;;;;;1.05;0.95;;;;;;;;;;5059079;28;20024;-62
2021/07/16 01:14:09;;;;;;;3.30;1.10;;;;;;;;;;5089587;28;20063;-62
2021/07/16 01:16:37;;;;;;;6.60;0.85;;;;;;;;;;5086856;28;20535;-62
2021/07/16 01:19:03;;;;;;;2.22;0.90;;;;;;;;;;5100464;28;20115;-63
2021/07/16 01:21:32;;;;;;;4.05;0.80;;;;;;;;;;5086761;28;20038;-63
2021/07/16 01:23:59;;;;;;;2.45;0.90;;;;;;;;;;5073714;28;20067;-62
2021/07/16 01:26:26;;;;;;;2.03;0.80;;;;;;;;;;5090681;28;20063;-63
2021/07/16 01:28:53;;;;;;;1.42;1.15;;;;;;;;;;5086849;28;20062;-63
2021/07/16 01:31:20;;;;;;;1.25;0.90;;;;;;;;;;5078278;28;20071;-63
2021/07/16 01:33:46;;;;;;;6.15;1.00;;;;;;;;;;5084314;28;20044;-64
2021/07/16 01:36:13;;;;;;;2.58;0.88;;;;;;;;;;5074819;28;20480;-64
2021/07/16 01:38:40;;;;;;;2.47;0.90;;;;;;;;;;5080651;28;20044;-63
2021/07/16 01:41:06;;;;;;;0.90;0.77;;;;;;;;;;5089834;28;20071;-63
2021/07/16 01:43:33;;;;;;;1.50;0.82;;;;;;;;;;5082584;28;20037;-63
2021/07/16 01:46:00;;;;;;;1.27;0.90;;;;;;;;;;5085752;28;20556;-63
2021/07/16 01:48:27;;;;;;;1.85;1.00;;;;;;;;;;5087634;28;20097;-64
2021/07/16 01:50:54;;;;;;;2.72;0.80;;;;;;;;;;5072935;28;20139;-63
2021/07/16 01:53:20;;;;;;;2.10;0.82;;;;;;;;;;5088039;28;20123;-63
2021/07/16 01:55:47;;;;;;;1.88;0.90;;;;;;;;;;5089940;28;20128;-64
2021/07/16 01:58:15;;;;;;;4.13;1.00;;;;;;;;;;5083545;28;20086;-63
2021/07/16 02:00:44;;;;;;;4.15;0.90;;;;;;;;;;5087788;28;20032;-63
2021/07/16 02:03:15;;;;;;;1.25;0.80;;;;;;;;;;5086545;28;20032;-63
2021/07/16 02:05:43;;;;;;;3.38;0.90;;;;;;;;;;5087759;28;20039;-63
2021/07/16 02:08:15;;;;;;;4.25;0.80;;;;;;;;;;5087767;28;20071;-62
2021/07/16 02:10:42;;;;;;;3.15;0.80;;;;;;;;;;5090965;28;20498;-62
2021/07/16 02:13:09;;;;;;;3.63;0.90;;;;;;;;;;5090726;28;20071;-63
2021/07/16 02:15:39;;;;;;;2.40;0.95;;;;;;;;;;5082116;28;20544;-63
2021/07/16 02:18:08;;;;;;;2.75;0.93;;;;;;;;;;5087599;28;20089;-63
2021/07/16 02:20:38;;;;;;;2.42;0.95;;;;;;;;;;5087281;28;20123;-63
2021/07/16 02:23:10;;;;;;;1.63;0.77;;;;;;;;;;5090225;28;20464;-63
2021/07/16 02:25:36;;;;;;;1.25;0.85;;;;;;;;;;5091102;28;20114;-62
2021/07/16 02:28:04;;;;;;;3.97;0.93;;;;;;;;;;5070369;28;20068;-63
2021/07/16 02:30:31;;;;;;;2.17;1.00;;;;;;;;;;5085469;28;20028;-63
2021/07/16 02:32:59;;;;;;;2.67;0.77;;;;;;;;;;5088064;28;20507;-63
2021/07/16 02:35:26;;;;;;;3.33;0.70;;;;;;;;;;5090118;28;20072;-63
2021/07/16 02:37:53;;;;;;;0.88;0.50;;;;;;;;;;5088923;28;20048;-63
2021/07/16 02:40:21;;;;;;;1.30;0.70;;;;;;;;;;5084784;28;20085;-63
2021/07/16 02:42:48;;;;;;;1.63;0.80;;;;;;;;;;5083402;28;20041;-63
2021/07/16 02:45:18;;;;;;;0.85;0.70;;;;;;;;;;5082855;28;20707;-63
2021/07/16 02:47:49;;;;;;;0.98;0.80;;;;;;;;;;5089991;28;20052;-63
2021/07/16 02:50:20;;;;;;;2.83;0.90;;;;;;;;;;5087150;28;20598;-63
2021/07/16 02:52:47;;;;;;;2.95;0.90;;;;;;;;;;5088198;28;20503;-63
2021/07/16 02:55:13;;;;;;;2.88;0.90;;;;;;;;;;5080574;28;20127;-62
2021/07/16 02:57:40;;;;;;;1.33;0.80;;;;;;;;;;5081779;28;20133;-61
2021/07/16 03:00:12;;;;;;;2.15;0.90;;;;;;;;;;5083740;28;20044;-62
2021/07/16 03:02:39;;;;;;;1.48;0.70;;;;;;;;;;5091073;28;20040;-62
2021/07/16 03:05:07;;;;;;;1.08;0.70;;;;;;;;;;5090013;28;20047;-63
2021/07/16 03:07:34;;;;;;;0.93;0.60;;;;;;;;;;5092618;28;20085;-63
2021/07/16 03:10:06;;;;;;;1.38;0.80;;;;;;;;;;5092185;28;20127;-59
2021/07/16 03:12:33;;;;;;;2.70;0.90;;;;;;;;;;5077597;28;20391;-59
2021/07/16 03:14:59;;;;;;;3.35;1.13;;;;;;;;;;5092329;28;20067;-58
2021/07/16 03:17:26;;;;;;;3.60;1.00;;;;;;;;;;5080965;28;20048;-58
2021/07/16 03:19:53;;;;;;;5.63;1.02;;;;;;;;;;5091468;28;20115;-58
2021/07/16 03:22:20;;;;;;;4.70;1.13;;;;;;;;;;5090430;28;20087;-57
2021/07/16 03:24:46;;;;;;;2.20;0.90;;;;;;;;;;5074500;28;20051;-57
2021/07/16 03:27:13;;;;;;;1.08;0.98;;;;;;;;;;5090873;28;20063;-58
2021/07/16 03:29:40;;;;;;;1.98;0.90;;;;;;;;;;5090767;28;20093;-57
2021/07/16 03:32:09;;;;;;;2.38;1.08;;;;;;;;;;5092212;28;20514;-59
2021/07/16 03:34:36;;;;;;;1.00;0.90;;;;;;;;;;5091023;28;20052;-58
2021/07/16 03:37:03;;;;;;;0.80;0.70;;;;;;;;;;5090721;28;20068;-59
2021/07/16 03:39:30;;;;;;;1.92;0.90;;;;;;;;;;5083293;28;20063;-60
2021/07/16 03:41:57;;;;;;;5.20;1.00;;;;;;;;;;5098792;28;20135;-60
2021/07/16 03:44:24;;;;;;;1.30;0.90;;;;;;;;;;5092526;28;20506;-59
2021/07/16 03:47:15;;;;;;;1.25;0.80;;;;;;;;;;5075750;28;20042;-58
2021/07/16 03:49:42;;;;;;;3.55;0.70;;;;;;;;;;5090272;28;20044;-58
2021/07/16 03:52:09;;;;;;;1.30;0.60;;;;;;;;;;5078865;28;20652;-59
2021/07/16 03:54:37;;;;;;;1.17;0.70;;;;;;;;;;5088060;28;20048;-59
2021/07/16 03:57:04;;;;;;;1.95;0.90;;;;;;;;;;5090853;28;20067;-60
2021/07/16 03:59:32;;;;;;;0.82;0.80;;;;;;;;;;5092411;28;20134;-59
2021/07/16 04:01:59;;;;;;;2.38;0.70;;;;;;;;;;5091428;28;20036;-58
2021/07/16 04:04:27;;;;;;;1.27;0.60;;;;;;;;;;5088964;28;20098;-58
2021/07/16 04:06:57;;;;;;;0.98;0.60;;;;;;;;;;5091460;28;20126;-60
2021/07/16 04:09:29;;;;;;;0.60;0.60;;;;;;;;;;5089200;28;20066;-59
2021/07/16 04:12:06;;;;;;;4.43;0.95;;;;;;;;;;5090864;28;20074;-59
2021/07/16 04:14:33;;;;;;;0.80;0.60;;;;;;;;;;5090634;28;20044;-59
2021/07/16 04:17:01;;;;;;;1.02;0.60;;;;;;;;;;5082050;28;20507;-60
2021/07/16 04:19:27;;;;;;;0.93;0.70;;;;;;;;;;5086157;28;20041;-60
2021/07/16 04:21:54;;;;;;;0.63;0.63;;;;;;;;;;5079051;28;20036;-60
2021/07/16 04:24:22;;;;;;;3.75;0.80;;;;;;;;;;5090782;28;20032;-60
2021/07/16 04:26:48;;;;;;;2.47;0.70;;;;;;;;;;5091041;28;20453;-60
2021/07/16 04:29:15;;;;;;;0.98;0.60;;;;;;;;;;5080178;28;20067;-60
2021/07/16 04:31:42;;;;;;;1.67;0.60;;;;;;;;;;5093314;28;20086;-59
2021/07/16 04:34:09;;;;;;;2.05;0.70;;;;;;;;;;5090581;28;20071;-59
2021/07/16 04:36:35;;;;;;;0.68;0.68;;;;;;;;;;5089208;28;20032;-59
2021/07/16 04:39:03;;;;;;;5.13;0.70;;;;;;;;;;5087531;28;20024;-59
2021/07/16 04:41:30;;;;;;;0.65;0.65;;;;;;;;;;5091443;28;20131;-59
2021/07/16 04:43:57;;;;;;;0.70;0.70;;;;;;;;;;5084280;28;20068;-59
2021/07/16 04:46:23;;;;;;;1.70;0.90;;;;;;;;;;5080244;28;20063;-60
2021/07/16 04:48:55;;;;;;;1.17;0.70;;;;;;;;;;5075207;28;20033;-60
2021/07/16 04:51:28;;;;;;;1.73;0.70;;;;;;;;;;5087175;28;20415;-61
2021/07/16 04:53:55;;;;;;;0.70;0.70;;;;;;;;;;5089081;28;20086;-61
2021/07/16 04:56:23;;;;;;;0.70;0.70;;;;;;;;;;5086875;28;20044;-61
2021/07/16 04:58:49;;;;;;;1.85;0.70;;;;;;;;;;5089921;28;20042;-61
2021/07/16 05:01:16;;;;;;;0.85;0.70;;;;;;;;;;5089217;28;20056;-61
2021/07/16 05:03:44;;;;;;;0.70;0.70;;;;;;;;;;5090624;28;20139;-61
2021/07/16 05:06:13;;;;;;;0.63;0.63;;;;;;;;;;5089491;28;20444;-61
2021/07/16 05:08:41;;;;;;;0.60;0.60;;;;;;;;;;5077303;28;20127;-61
2021/07/16 05:11:08;;;;;;;0.90;0.60;;;;;;;;;;5084427;28;20044;-61
2021/07/16 05:13:38;;;;;;;0.90;0.70;;;;;;;;;;5071808;28;20040;-61
2021/07/16 05:16:06;;;;;;;1.90;0.60;;;;;;;;;;5091653;28;20051;-62
2021/07/16 05:18:34;;;;;;;1.08;0.70;;;;;;;;;;5086327;28;20040;-62
2021/07/16 05:21:01;;;;;;;2.92;1.40;;;;;;;;;;5080640;28;20564;-61
2021/07/16 05:23:28;;;;;;;1.75;0.70;;;;;;;;;;5084418;28;20031;-59
2021/07/16 05:25:55;;;;;;;1.80;0.70;;;;;;;;;;5073524;28;20464;-60
2021/07/16 05:28:22;;;;;;;0.70;0.70;;;;;;;;;;5080686;28;20041;-59
2021/07/16 05:30:48;;;;;;;2.33;0.77;;;;;;;;;;5078675;28;20533;-60
2021/07/16 05:33:15;;;;;;;1.92;0.70;;;;;;;;;;5084640;28;20105;-59
2021/07/16 05:35:42;;;;;;;1.88;0.80;;;;;;;;;;5085757;28;20041;-59
2021/07/16 05:38:09;;;;;;;1.83;0.70;;;;;;;;;;5074009;28;20044;-60
2021/07/16 05:40:37;;;;;;;3.03;0.70;;;;;;;;;;5097367;28;20471;-60
2021/07/16 05:43:04;;;;;;;2.15;0.70;;;;;;;;;;5097424;28;20415;-60
2021/07/16 05:45:31;;;;;;;0.80;0.80;;;;;;;;;;5076695;28;20040;-59
2021/07/16 05:48:00;;;;;;;0.80;0.80;;;;;;;;;;5084797;28;20047;-59
2021/07/16 05:50:26;;;;;;;1.08;0.90;;;;;;;;;;5085724;28;20627;-60
2021/07/16 05:52:53;;;;;;;0.98;0.85;;;;;;;;;;5089984;28;20434;-60
2021/07/16 05:55:20;;;;;;;0.85;0.85;;;;;;;;;;5086808;28;20119;-60
2021/07/16 05:57:47;;;;;;;1.50;0.80;;;;;;;;;;5089284;28;20657;-59
2021/07/16 06:00:14;;;;;;;0.70;0.70;;;;;;;;;;5089304;28;20064;-60
2021/07/16 06:02:41;;;;;;;0.70;0.70;;;;;;;;;;5089981;28;20379;-59
2021/07/16 06:05:08;;;;;;;1.55;0.73;;;;;;;;;;5083265;28;20063;-59
2021/07/16 06:07:35;;;;;;;1.40;0.95;;;;;;;;;;5089891;28;20496;-60
2021/07/16 06:10:03;;;;;;;0.70;0.70;;;;;;;;;;5107280;28;20040;-60
2021/07/16 06:12:30;;;;;;;0.60;0.60;;;;;;;;;;5088736;28;20036;-60
2021/07/16 06:14:56;;;;;;;2.38;0.70;;;;;;;;;;5088979;28;20102;-60
2021/07/16 06:17:25;;;;;;;0.70;0.70;;;;;;;;;;5078201;28;20036;-60
2021/07/16 06:19:52;;;;;;;0.70;0.70;;;;;;;;;;5086255;28;20028;-60
2021/07/16 06:22:19;;;;;;;1.77;0.70;;;;;;;;;;5085554;28;20059;-60
2021/07/16 06:24:46;;;;;;;2.58;0.70;;;;;;;;;;5081274;28;20044;-60
2021/07/16 06:27:12;;;;;;;0.80;0.80;;;;;;;;;;5077365;28;20047;-60
2021/07/16 06:29:40;;;;;;;0.60;0.60;;;;;;;;;;5106622;28;20085;-60
2021/07/16 06:32:07;;;;;;;0.95;0.70;;;;;;;;;;5085363;28;20048;-59
2021/07/16 06:34:34;;;;;;;1.85;0.80;;;;;;;;;;5083289;28;20132;-60
2021/07/16 06:37:00;;;;;;;0.70;0.70;;;;;;;;;;5090956;28;20387;-60
2021/07/16 06:39:27;;;;;;;0.77;0.70;;;;;;;;;;5093051;28;20760;-60
2021/07/16 06:41:54;;;;;;;0.95;0.73;;;;;;;;;;5093272;28;20055;-60
2021/07/16 06:44:21;;;;;;;3.42;1.33;;;;;;;;;;5088214;28;20443;-60
2021/07/16 06:46:48;;;;;;;3.83;0.80;;;;;;;;;;5080183;28;20098;-60
2021/07/16 06:49:15;;;;;;;2.63;0.60;;;;;;;;;;5093829;28;20056;-60
2021/07/16 06:51:42;;;;;;;1.48;0.75;;;;;;;;;;5090459;28;20479;-59
2021/07/16 06:54:08;;;;;;;1.83;0.60;;;;;;;;;;5091886;28;20048;-59
2021/07/16 06:56:36;;;;;;;0.68;0.60;;;;;;;;;;5086589;28;20064;-60
2021/07/16 06:59:04;;;;;;;1.73;0.60;;;;;;;;;;5078375;28;20040;-59
2021/07/16 07:01:31;;;;;;;0.60;0.60;;;;;;;;;;5093788;28;20032;-60
2021/07/16 07:03:59;;;;;;;2.20;0.68;;;;;;;;;;5092901;28;20605;-60
2021/07/16 07:06:26;;;;;;;0.60;0.60;;;;;;;;;;5075917;28;20060;-60
2021/07/16 07:08:53;;;;;;;1.10;0.60;;;;;;;;;;5091604;28;20048;-60
2021/07/16 07:11:20;;;;;;;1.13;0.63;;;;;;;;;;5090582;28;20511;-61
2021/07/16 07:13:46;;;;;;;0.60;0.60;;;;;;;;;;5079301;28;20044;-60
2021/07/16 07:16:16;;;;;;;0.73;0.70;;;;;;;;;;5086831;28;20512;-61
2021/07/16 07:18:43;;;;;;;0.60;0.60;;;;;;;;;;5073856;28;20044;-60
2021/07/16 07:21:10;;;;;;;1.70;0.70;;;;;;;;;;5092998;28;20117;-60
2021/07/16 07:23:37;;;;;;;0.60;0.60;;;;;;;;;;5092070;28;20047;-60
2021/07/16 07:26:04;;;;;;;0.70;0.70;;;;;;;;;;5077175;28;20558;-60
2021/07/16 07:28:31;;;;;;;3.42;0.75;;;;;;;;;;5085957;28;20136;-60
2021/07/16 07:30:58;;;;;;;1.50;0.70;;;;;;;;;;5075338;28;20465;-59
2021/07/16 07:33:25;;;;;;;2.33;0.70;;;;;;;;;;5083188;28;20480;-61
2021/07/16 07:35:52;;;;;;;1.42;0.70;;;;;;;;;;5089189;28;20036;-60
2021/07/16 07:38:18;;;;;;;1.85;0.70;;;;;;;;;;5091998;28;20048;-59
2021/07/16 07:40:45;;;;;;;1.70;0.70;;;;;;;;;;5089232;28;20140;-61
2021/07/16 07:43:12;;;;;;;0.80;0.80;;;;;;;;;;5076478;28;20464;-60
2021/07/16 07:45:39;;;;;;;0.88;0.88;;;;;;;;;;5080393;28;20119;-60
2021/07/16 07:48:06;;;;;;;0.65;0.65;;;;;;;;;;5086378;28;20032;-60
2021/07/16 07:50:33;;;;;;;0.88;0.70;;;;;;;;;;5092238;28;20047;-60
2021/07/16 07:53:00;;;;;;;1.08;0.70;;;;;;;;;;5088942;28;20079;-60
2021/07/16 07:55:28;;;;;;;0.70;0.70;;;;;;;;;;5090848;28;20040;-60
2021/07/16 07:57:54;;;;;;;1.17;0.70;;;;;;;;;;5080184;28;20048;-60
2021/07/16 08:00:25;;;;;;;1.60;0.88;;;;;;;;;;5085778;28;20044;-60
2021/07/16 08:02:52;;;;;;;0.70;0.70;;;;;;;;;;5091387;28;20081;-60
2021/07/16 08:05:19;;;;;;;0.70;0.70;;;;;;;;;;5086904;28;20048;-60
2021/07/16 08:07:46;;;;;;;0.80;0.80;;;;;;;;;;5078638;28;20040;-60
2021/07/16 08:10:14;;;;;;;2.38;0.75;;;;;;;;;;5079760;28;20059;-60
2021/07/16 08:12:41;;;;;;;1.42;0.70;;;;;;;;;;5088000;28;20044;-60
2021/07/16 08:15:09;;;;;;;1.20;0.70;;;;;;;;;;5089944;28;20036;-58
2021/07/16 08:17:36;;;;;;;1.88;0.70;;;;;;;;;;5091957;28;20067;-60
2021/07/16 08:20:04;;;;;;;0.95;0.70;;;;;;;;;;5091215;28;20123;-60
2021/07/16 08:22:31;;;;;;;1.13;0.77;;;;;;;;;;5085029;28;20460;-59
2021/07/16 08:24:57;;;;;;;0.70;0.70;;;;;;;;;;5088570;28;20028;-60
2021/07/16 08:27:24;;;;;;;0.93;0.70;;;;;;;;;;5075793;28;20032;-60
2021/07/16 08:29:51;;;;;;;0.70;0.70;;;;;;;;;;5093099;28;20392;-60
2021/07/16 08:32:18;;;;;;;1.10;0.70;;;;;;;;;;5099329;28;20093;-58
2021/07/16 08:34:44;;;;;;;0.93;0.70;;;;;;;;;;5098593;28;20122;-60
2021/07/16 08:37:11;;;;;;;1.38;0.70;;;;;;;;;;5089462;28;20056;-60
2021/07/16 08:39:38;;;;;;;0.70;0.70;;;;;;;;;;5078189;28;20377;-59
2021/07/16 08:42:05;;;;;;;3.50;1.33;;;;;;;;;;5090335;28;20086;-60
2021/07/16 08:44:33;;;;;;;1.33;1.23;;;;;;;;;;5088489;28;20511;-60
2021/07/16 08:46:59;;;;;;;1.40;0.80;;;;;;;;;;5073404;28;20051;-59
2021/07/16 08:49:26;;;;;;;0.77;0.77;;;;;;;;;;5085861;28;20072;-60
2021/07/16 08:51:53;;;;;;;0.93;0.70;;;;;;;;;;5075957;28;20048;-60
2021/07/16 08:54:21;;;;;;;0.80;0.80;;;;;;;;;;5082170;28;20443;-60
2021/07/16 08:56:48;;;;;;;1.02;0.80;;;;;;;;;;5084247;28;20067;-60
2021/07/16 08:59:15;;;;;;;0.80;0.80;;;;;;;;;;5108483;28;20093;-60
2021/07/16 09:01:46;;;;;;;1.15;0.70;;;;;;;;;;5089669;28;20922;-60
2021/07/16 09:04:13;;;;;;;0.98;0.68;;;;;;;;;;5088863;28;20086;-60
2021/07/16 09:06:47;;;;;;;1.05;0.95;;;;;;;;;;5078143;28;20048;-60
2021/07/16 09:09:15;;;;;;;0.77;0.60;;;;;;;;;;5085021;28;20044;-59
2021/07/16 09:11:43;;;;;;;0.60;0.60;;;;;;;;;;5072820;28;20110;-60
2021/07/16 09:14:20;;;;;;;0.95;0.60;;;;;;;;;;5082494;28;20132;-60
2021/07/16 09:17:14;;;;;;;1.15;0.60;;;;;;;;;;5083932;28;20039;-60
2021/07/16 09:19:42;;;;;;;0.70;0.60;;;;;;;;;;5070434;28;20142;-60
2021/07/16 09:22:12;;;;;;;0.70;0.70;;;;;;;;;;5091980;28;20533;-60
2021/07/16 09:24:44;;;;;;;0.77;0.68;;;;;;;;;;5089751;28;20131;-60
2021/07/16 09:27:30;;;;;;;2.50;0.73;;;;;;;;;;5089801;28;20040;-61
2021/07/16 09:30:15;;;;;;;0.90;0.90;;;;;;;;;;5065378;28;20058;-59
2021/07/16 09:32:43;;;;;;;1.80;0.90;;;;;;;;;;5080873;28;20044;-59
2021/07/16 09:35:10;;;;;;;1.52;0.70;;;;;;;;;;5087946;28;20044;-60
2021/07/16 09:37:46;;;;;;;0.60;0.60;;;;;;;;;;5087604;28;20593;-60
2021/07/16 09:40:18;;;;;;;0.60;0.60;;;;;;;;;;5075804;28;20044;-60
2021/07/16 09:42:45;;;;;;;1.67;0.60;;;;;;;;;;5089936;28;20123;-60
2021/07/16 09:45:15;;;;;;;0.80;0.70;;;;;;;;;;5087854;28;20032;-60
2021/07/16 09:47:42;;;;;;;0.70;0.60;;;;;;;;;;5088811;28;20488;-59
2021/07/16 09:50:10;;;;;;;1.15;0.70;;;;;;;;;;5088253;28;20089;-58
2021/07/16 09:52:37;;;;;;;1.70;0.68;;;;;;;;;;5088371;28;20048;-60
2021/07/16 09:55:08;;;;;;;1.80;0.70;;;;;;;;;;5090627;28;20067;-60
2021/07/16 09:57:45;;;;;;;1.42;0.75;;;;;;;;;;5088981;28;20044;-60
2021/07/16 10:00:15;;;;;;;0.70;0.70;;;;;;;;;;5088381;28;20098;-59
2021/07/16 10:02:44;;;;;;;2.55;0.70;;;;;;;;;;5098481;28;20123;-59
2021/07/16 10:05:11;;;;;;;1.30;0.60;;;;;;;;;;5093841;28;20032;-59
2021/07/16 10:07:38;;;;;;;0.75;0.70;;;;;;;;;;5080671;28;20063;-59
2021/07/16 10:10:05;;;;;;;3.15;0.80;;;;;;;;;;5084675;28;20108;-58
2021/07/16 10:12:32;;;;;;;1.95;0.73;;;;;;;;;;5074937;28;20111;-59
2021/07/16 10:14:59;;;;;;;2.58;0.70;;;;;;;;;;5089009;28;20048;-59
2021/07/16 10:17:26;;;;;;;0.75;0.70;;;;;;;;;;5088837;28;20046;-59
2021/07/16 10:19:53;;;;;;;1.58;0.70;;;;;;;;;;5088334;28;20040;-59
2021/07/16 10:22:19;;;;;;;0.70;0.70;;;;;;;;;;5089025;28;20036;-59
2021/07/16 10:24:46;;;;;;;0.80;0.80;;;;;;;;;;5078569;28;20036;-59
2021/07/16 10:27:19;;;;;;;0.85;0.85;;;;;;;;;;5076941;28;20044;-59
2021/07/16 10:29:46;;;;;;;2.00;0.80;;;;;;;;;;5082849;28;20032;-58
2021/07/16 10:32:33;;;;;;;1.48;0.70;;;;;;;;;;5070065;28;20094;-59
2021/07/16 10:35:13;;;;;;;0.70;0.70;;;;;;;;;;5002863;28;20056;-59
2021/07/16 10:37:40;;;;;;;1.38;0.70;;;;;;;;;;4997230;28;20057;-59
2021/07/16 10:40:07;;;;;;;1.17;0.60;;;;;;;;;;5011917;28;20044;-59
2021/07/16 10:42:36;;;;;;;1.20;0.68;;;;;;;;;;5007898;28;20045;-60
2021/07/16 10:45:04;;;;;;;2.00;0.60;;;;;;;;;;5005538;28;20074;-59
2021/07/16 10:47:33;;;;;;;1.27;0.60;;;;;;;;;;5007171;28;20068;-59
2021/07/16 10:50:01;;;;;;;1.77;0.60;;;;;;;;;;5006880;28;20974;-59
2021/07/16 10:52:41;;;;;;;1.00;0.70;;;;;;;;;;5007122;28;20104;-60
2021/07/16 10:55:07;;;;;;;1.42;0.80;;;;;;;;;;5007232;28;20132;-59
2021/07/16 10:57:41;;;;;;;0.90;0.70;;;;;;;;;;5006018;28;20550;-60
2021/07/16 11:00:08;;;;;;;1.88;0.63;;;;;;;;;;5004948;28;20077;-59
2021/07/16 11:02:42;;;;;;;0.77;0.70;;;;;;;;;;5004214;28;20088;-60
2021/07/16 11:05:28;;;;;;;0.70;0.70;;;;;;;;;;5005597;28;20057;-60
2021/07/16 11:07:54;;;;;;;2.03;0.70;;;;;;;;;;5006907;28;20034;-58
2021/07/16 11:10:40;;;;;;;1.30;0.65;;;;;;;;;;5007157;28;20053;-59
2021/07/16 11:13:25;;;;;;;1.67;0.70;;;;;;;;;;5075676;28;20546;-60
2021/07/16 11:15:52;;;;;;;3.50;0.70;;;;;;;;;;5081634;28;20067;-59
2021/07/16 11:18:28;;;;;;;1.25;0.70;;;;;;;;;;5080148;28;20110;-60
2021/07/16 11:20:56;;;;;;;2.58;0.88;;;;;;;;;;5083701;28;20040;-60
2021/07/16 11:23:43;;;;;;;1.58;0.57;;;;;;;;;;5086059;28;20123;-60
2021/07/16 11:26:16;;;;;;;0.55;0.55;;;;;;;;;;5065062;28;20075;-60
2021/07/16 11:28:44;;;;;;;1.48;0.60;;;;;;;;;;5093163;28;20028;-60
2021/07/16 11:31:11;;;;;;;0.60;0.60;;;;;;;;;;5089956;28;20036;-60
2021/07/16 11:33:37;;;;;;;0.73;0.60;;;;;;;;;;5066246;28;20484;-60
2021/07/16 11:36:04;;;;;;;2.15;0.50;;;;;;;;;;5092567;28;20476;-60
2021/07/16 11:38:31;;;;;;;1.05;0.50;;;;;;;;;;5089572;28;20056;-53
2021/07/16 11:41:07;;;;;;;0.70;0.50;;;;;;;;;;5099143;28;20434;-55
2021/07/16 11:43:34;;;;;;;0.85;0.50;;;;;;;;;;5088975;28;20481;-54
2021/07/16 11:46:00;;;;;;;0.68;0.50;;;;;;;;;;5090169;28;20500;-54
2021/07/16 11:48:28;;;;;;;1.77;0.50;;;;;;;;;;5092036;28;20089;-53
2021/07/16 11:51:05;;;;;;;0.50;0.50;;;;;;;;;;5091301;28;20412;-55
2021/07/16 11:53:31;;;;;;;0.60;0.60;;;;;;;;;;5091938;28;20147;-52
2021/07/16 11:56:09;;;;;;;0.50;0.50;;;;;;;;;;5087340;28;20109;-55
2021/07/16 11:58:46;;;;;;;0.52;0.50;;;;;;;;;;5079105;28;20119;-55
2021/07/16 12:01:13;;;;;;;0.93;0.60;;;;;;;;;;5091954;28;20415;-55
2021/07/16 12:03:40;;;;;;;2.05;0.95;;;;;;;;;;5090788;28;20032;-55
2021/07/16 12:06:07;;;;;;;2.65;0.60;;;;;;;;;;5091252;28;20090;-55
2021/07/16 12:08:39;;;;;;;1.35;0.50;;;;;;;;;;5082423;28;20044;-55
2021/07/16 12:11:16;;;;;;;0.40;0.40;;;;;;;;;;5084728;28;20094;-54
2021/07/16 12:13:57;;;;;;;0.40;0.40;;;;;;;;;;5065571;28;20044;-55
2021/07/16 12:16:24;;;;;;;1.70;0.50;;;;;;;;;;5092073;28;20051;-55
2021/07/16 12:18:51;;;;;;;0.55;0.45;;;;;;;;;;5087871;28;20063;-55
2021/07/16 12:21:21;;;;;;;1.23;0.50;;;;;;;;;;5091074;28;20128;-53
2021/07/16 12:23:49;;;;;;;2.75;0.40;;;;;;;;;;5089195;28;20040;-54
2021/07/16 12:26:18;;;;;;;1.92;0.50;;;;;;;;;;5083645;28;20024;-55
2021/07/16 12:28:45;;;;;;;0.50;0.40;;;;;;;;;;5089663;28;20064;-54
2021/07/16 12:31:18;;;;;;;0.50;0.50;;;;;;;;;;5088767;28;20043;-53
2021/07/16 12:33:46;;;;;;;;;;;;;;;;;;5092652;28;20048;-57
2021/07/16 12:36:26;;;;;;;1.95;1.05;;;;;;;;;;5084960;28;19924;-55
2021/07/16 12:38:54;;;;;;;0.60;0.40;;;;;;;;;;5087514;28;20040;-55
2021/07/16 12:41:22;;;;;;;0.50;0.50;;;;;;;;;;5077775;28;20064;-54
2021/07/16 12:43:49;;;;;;;0.40;0.40;;;;;;;;;;5075594;28;20075;-55
2021/07/16 12:46:23;;;;;;;1.75;0.40;;;;;;;;;;5071078;28;20058;-54
2021/07/16 12:48:50;;;;;;;0.40;0.40;;;;;;;;;;5090806;28;20044;-54
2021/07/16 12:51:18;;;;;;;0.40;0.40;;;;;;;;;;5088925;28;20044;-54
2021/07/16 12:53:50;;;;;;;1.88;0.30;;;;;;;;;;5081146;28;20049;-56
2021/07/16 12:56:21;;;;;;;1.00;0.32;;;;;;;;;;5092519;28;20457;-55
2021/07/16 12:58:49;;;;;;;0.43;0.30;;;;;;;;;;5101030;28;20089;-56
2021/07/16 13:01:25;;;;;;;0.50;0.40;;;;;;;;;;5091363;28;20119;-55
2021/07/16 13:03:52;;;;;;;0.38;0.38;;;;;;;;;;5088541;28;20074;-55
2021/07/16 13:06:23;;;;;;;0.30;0.30;;;;;;;;;;5082195;28;20048;-54
2021/07/16 13:09:19;;;;;;;0.40;0.40;;;;;;;;;;5091209;28;20044;-55
2021/07/16 13:11:59;;;;;;;0.32;0.32;;;;;;;;;;5079429;28;20496;-55
2021/07/16 13:14:41;;;;;;;0.35;0.35;;;;;;;;;;5076641;28;20093;-55
2021/07/16 13:17:19;;;;;;;1.65;0.40;;;;;;;;;;5099585;28;20131;-55
2021/07/16 13:19:49;;;;;;;0.40;0.40;;;;;;;;;;5094650;28;20051;-56
2021/07/16 13:22:15;;;;;;;0.63;0.30;;;;;;;;;;5090151;28;20048;-55
2021/07/16 13:24:42;;;;;;;0.43;0.30;;;;;;;;;;5088417;28;20082;-54
2021/07/16 13:27:09;;;;;;;0.43;0.43;;;;;;;;;;5088490;28;20124;-55
2021/07/16 13:29:36;;;;;;;0.40;0.40;;;;;;;;;;5103156;28;20430;-55
2021/07/16 13:32:02;;;;;;;0.40;0.40;;;;;;;;;;5094228;28;20527;-56
2021/07/16 13:34:29;;;;;;;0.40;0.40;;;;;;;;;;5089207;28;20040;-56
2021/07/16 13:36:56;;;;;;;0.43;0.38;;;;;;;;;;5090534;28;20539;-54
2021/07/16 13:39:22;;;;;;;0.40;0.40;;;;;;;;;;5089008;28;20146;-54
2021/07/16 13:41:50;;;;;;;0.30;0.30;;;;;;;;;;5091702;28;20457;-55
2021/07/16 13:44:16;;;;;;;0.85;0.40;;;;;;;;;;5087491;28;20044;-56
2021/07/16 13:46:46;;;;;;;0.70;0.70;;;;;;;;;;5089958;28;20380;-54
2021/07/16 13:49:16;;;;;;;0.40;0.40;;;;;;;;;;5091206;28;20040;-54
2021/07/16 13:51:43;;;;;;;0.40;0.40;;;;;;;;;;5089227;28;20526;-53
2021/07/16 13:54:12;;;;;;;1.20;0.40;;;;;;;;;;5074027;28;20480;-55
2021/07/16 13:56:42;;;;;;;1.10;0.32;;;;;;;;;;5088618;28;20078;-54
2021/07/16 13:59:08;;;;;;;0.40;0.40;;;;;;;;;;5088830;28;20043;-55
2021/07/16 14:01:35;;;;;;;0.40;0.40;;;;;;;;;;5079589;28;20557;-56
2021/07/16 14:04:03;;;;;;;0.30;0.30;;;;;;;;;;5082967;28;20753;-53
2021/07/16 14:06:29;;;;;;;1.52;0.50;;;;;;;;;;5089673;28;20422;-52
2021/07/16 14:08:56;;;;;;;0.40;0.40;;;;;;;;;;5092462;28;20039;-55
2021/07/16 14:11:23;;;;;;;7.40;0.50;;;;;;;;;;5079628;28;20046;-54
2021/07/16 14:13:50;;;;;;;4.43;0.50;;;;;;;;;;5079831;28;20379;-56
2021/07/16 14:16:16;;;;;;;0.30;0.30;;;;;;;;;;5088535;28;20035;-55
2021/07/16 14:18:43;;;;;;;2.10;0.40;;;;;;;;;;5088008;28;20101;-54
2021/07/16 14:21:29;;;;;;;0.35;0.30;;;;;;;;;;5089535;28;20032;-54
2021/07/16 14:23:56;;;;;;;0.30;0.30;;;;;;;;;;5088597;28;20063;-55
2021/07/16 14:26:26;;;;;;;0.40;0.40;;;;;;;;;;5089547;28;20897;-55
2021/07/16 14:28:53;;;;;;;0.40;0.40;;;;;;;;;;5086627;28;20523;-54
2021/07/16 14:31:21;;;;;;;0.30;0.30;;;;;;;;;;5073449;28;20127;-55
2021/07/16 14:33:50;;;;;;;0.40;0.40;;;;;;;;;;5089290;28;20048;-55
2021/07/16 14:36:17;;;;;;;0.50;0.50;;;;;;;;;;5088217;28;20039;-55
2021/07/16 14:38:44;;;;;;;0.40;0.40;;;;;;;;;;5081458;28;20131;-55
2021/07/16 14:41:14;;;;;;;0.30;0.30;;;;;;;;;;5089245;28;20040;-54
2021/07/16 14:43:42;;;;;;;0.40;0.40;;;;;;;;;;5088455;28;20055;-55
2021/07/16 14:46:09;;;;;;;1.25;0.40;;;;;;;;;;5090042;28;20066;-53
2021/07/16 14:48:35;;;;;;;0.30;0.30;;;;;;;;;;5089634;28;20490;-53
2021/07/16 14:51:02;;;;;;;0.40;0.40;;;;;;;;;;5086651;28;20132;-54